sensor_id;sensor_type;location;lat;lon;timestamp;temperature;humidity
19168;DHT22;9716;53.114;18.040;2023-03-12T00:01:15;2.00;99.90
19168;DHT22;9716;53.114;18.040;2023-03-12T00:03:44;1.90;99.90
19168;DHT22;9716;53.114;18.040;2023-03-12T00:06:13;1.90;99.90
19168;DHT22;9716;53.114;18.040;2023-03-12T00:08:43;1.90;99.90
19168;DHT22;9716;53.114;18.040;2023-03-12T00:11:17;1.80;99.90
19168;DHT22;9716;53.114;18.040;2023-03-12T00:13:48;1.80;99.90
19168;DHT22;9716;53.114;18.040;2023-03-12T00:16:17;1.80;99.90
19168;DHT22;9716;53.114;18.040;2023-03-12T00:18:47;1.70;99.90
19168;DHT22;9716;53.114;18.040;2023-03-12T00:21:16;1.70;99.90
19168;DHT22;9716;53.114;18.040;2023-03-12T00:23:48;1.70;99.90
19168;DHT22;9716;53.114;18.040;2023-03-12T00:26:18;1.60;99.90
19168;DHT22;9716;53.114;18.040;2023-03-12T00:28:47;1.60;99.90
19168;DHT22;9716;53.114;18.040;2023-03-12T00:31:19;1.60;99.90
19168;DHT22;9716;53.114;18.040;2023-03-12T00:33:49;1.60;99.90
19168;DHT22;9716;53.114;18.040;2023-03-12T00:36:19;1.60;99.90
19168;DHT22;9716;53.114;18.040;2023-03-12T00:38:51;1.70;99.90
19168;DHT22;9716;53.114;18.040;2023-03-12T00:41:20;1.70;99.90
19168;DHT22;9716;53.114;18.040;2023-03-12T00:43:49;1.70;99.90
19168;DHT22;9716;53.114;18.040;2023-03-12T00:46:18;1.70;99.90
19168;DHT22;9716;53.114;18.040;2023-03-12T00:48:47;1.80;99.90
19168;DHT22;9716;53.114;18.040;2023-03-12T00:51:16;1.80;99.90
19168;DHT22;9716;53.114;18.040;2023-03-12T00:53:45;1.80;99.90
19168;DHT22;9716;53.114;18.040;2023-03-12T00:56:15;1.80;99.90
19168;DHT22;9716;53.114;18.040;2023-03-12T00:58:43;1.90;99.90
19168;DHT22;9716;53.114;18.040;2023-03-12T01:01:12;1.90;99.90
19168;DHT22;9716;53.114;18.040;2023-03-12T01:03:41;1.90;99.90
19168;DHT22;9716;53.114;18.040;2023-03-12T01:06:09;2.00;99.90
19168;DHT22;9716;53.114;18.040;2023-03-12T01:08:37;2.00;99.90
19168;DHT22;9716;53.114;18.040;2023-03-12T01:11:06;2.00;99.90
19168;DHT22;9716;53.114;18.040;2023-03-12T01:13:36;1.90;99.90
19168;DHT22;9716;53.114;18.040;2023-03-12T01:16:05;1.90;99.90
19168;DHT22;9716;53.114;18.040;2023-03-12T01:18:34;1.90;99.90
19168;DHT22;9716;53.114;18.040;2023-03-12T01:21:03;1.90;99.90
19168;DHT22;9716;53.114;18.040;2023-03-12T01:23:32;1.90;99.90
19168;DHT22;9716;53.114;18.040;2023-03-12T01:26:00;1.80;99.90
19168;DHT22;9716;53.114;18.040;2023-03-12T01:28:28;1.80;99.90
19168;DHT22;9716;53.114;18.040;2023-03-12T01:31:05;1.80;99.90
19168;DHT22;9716;53.114;18.040;2023-03-12T01:33:34;1.70;99.90
19168;DHT22;9716;53.114;18.040;2023-03-12T01:36:03;1.70;99.90
19168;DHT22;9716;53.114;18.040;2023-03-12T01:38:32;1.60;99.90
19168;DHT22;9716;53.114;18.040;2023-03-12T01:41:00;1.60;99.90
19168;DHT22;9716;53.114;18.040;2023-03-12T01:43:31;1.60;99.90
19168;DHT22;9716;53.114;18.040;2023-03-12T01:49:02;1.50;99.90
19168;DHT22;9716;53.114;18.040;2023-03-12T01:51:35;1.50;99.90
19168;DHT22;9716;53.114;18.040;2023-03-12T01:54:07;1.40;99.90
19168;DHT22;9716;53.114;18.040;2023-03-12T01:56:37;1.40;99.90
19168;DHT22;9716;53.114;18.040;2023-03-12T01:59:11;1.40;99.90
19168;DHT22;9716;53.114;18.040;2023-03-12T02:01:41;1.40;99.90
19168;DHT22;9716;53.114;18.040;2023-03-12T02:04:12;1.40;99.90
19168;DHT22;9716;53.114;18.040;2023-03-12T02:06:44;1.40;99.90
19168;DHT22;9716;53.114;18.040;2023-03-12T02:09:16;1.40;99.90
19168;DHT22;9716;53.114;18.040;2023-03-12T02:11:46;1.50;99.90
19168;DHT22;9716;53.114;18.040;2023-03-12T02:14:15;1.50;99.90
19168;DHT22;9716;53.114;18.040;2023-03-12T02:16:43;1.60;99.90
19168;DHT22;9716;53.114;18.040;2023-03-12T02:19:18;1.60;99.90
19168;DHT22;9716;53.114;18.040;2023-03-12T02:21:50;1.60;99.90
19168;DHT22;9716;53.114;18.040;2023-03-12T02:24:27;1.70;99.90
19168;DHT22;9716;53.114;18.040;2023-03-12T02:26:58;1.70;99.90
19168;DHT22;9716;53.114;18.040;2023-03-12T02:29:28;1.70;99.90
19168;DHT22;9716;53.114;18.040;2023-03-12T02:31:59;1.70;99.90
19168;DHT22;9716;53.114;18.040;2023-03-12T02:34:28;1.80;99.90
19168;DHT22;9716;53.114;18.040;2023-03-12T02:36:57;1.80;99.90
19168;DHT22;9716;53.114;18.040;2023-03-12T02:39:25;1.80;99.90
19168;DHT22;9716;53.114;18.040;2023-03-12T02:41:54;1.80;99.90
19168;DHT22;9716;53.114;18.040;2023-03-12T02:44:27;1.90;99.90
19168;DHT22;9716;53.114;18.040;2023-03-12T02:46:59;1.90;99.90
19168;DHT22;9716;53.114;18.040;2023-03-12T02:49:30;1.90;99.90
19168;DHT22;9716;53.114;18.040;2023-03-12T02:51:59;1.90;99.90
19168;DHT22;9716;53.114;18.040;2023-03-12T02:54:28;1.90;99.90
19168;DHT22;9716;53.114;18.040;2023-03-12T02:56:56;1.90;99.90
19168;DHT22;9716;53.114;18.040;2023-03-12T02:59:26;1.90;99.90
19168;DHT22;9716;53.114;18.040;2023-03-12T03:01:56;1.90;99.90
19168;DHT22;9716;53.114;18.040;2023-03-12T03:04:28;1.90;99.90
19168;DHT22;9716;53.114;18.040;2023-03-12T03:06:57;1.80;99.90
19168;DHT22;9716;53.114;18.040;2023-03-12T03:09:26;1.80;99.90
19168;DHT22;9716;53.114;18.040;2023-03-12T03:11:54;1.80;99.90
19168;DHT22;9716;53.114;18.040;2023-03-12T03:14:22;1.80;99.90
19168;DHT22;9716;53.114;18.040;2023-03-12T03:16:52;1.80;99.90
19168;DHT22;9716;53.114;18.040;2023-03-12T03:19:21;1.90;99.90
19168;DHT22;9716;53.114;18.040;2023-03-12T03:21:49;1.90;99.90
19168;DHT22;9716;53.114;18.040;2023-03-12T03:24:17;1.80;99.90
19168;DHT22;9716;53.114;18.040;2023-03-12T03:26:46;1.80;99.90
19168;DHT22;9716;53.114;18.040;2023-03-12T03:29:14;1.80;99.90
19168;DHT22;9716;53.114;18.040;2023-03-12T03:31:43;1.80;99.90
19168;DHT22;9716;53.114;18.040;2023-03-12T03:34:12;1.80;99.90
19168;DHT22;9716;53.114;18.040;2023-03-12T03:36:41;1.70;99.90
19168;DHT22;9716;53.114;18.040;2023-03-12T03:39:09;1.70;99.90
19168;DHT22;9716;53.114;18.040;2023-03-12T03:41:37;1.70;99.90
19168;DHT22;9716;53.114;18.040;2023-03-12T03:44:06;1.70;99.90
19168;DHT22;9716;53.114;18.040;2023-03-12T03:46:34;1.60;99.90
19168;DHT22;9716;53.114;18.040;2023-03-12T03:49:03;1.60;99.90
19168;DHT22;9716;53.114;18.040;2023-03-12T03:51:33;1.60;99.90
19168;DHT22;9716;53.114;18.040;2023-03-12T03:54:02;1.60;99.90
19168;DHT22;9716;53.114;18.040;2023-03-12T03:56:30;1.70;99.90
19168;DHT22;9716;53.114;18.040;2023-03-12T03:58:58;1.50;99.90
19168;DHT22;9716;53.114;18.040;2023-03-12T04:01:28;1.50;99.90
19168;DHT22;9716;53.114;18.040;2023-03-12T04:03:57;1.50;99.90
19168;DHT22;9716;53.114;18.040;2023-03-12T04:06:26;1.40;99.90
19168;DHT22;9716;53.114;18.040;2023-03-12T04:08:57;1.40;99.90
19168;DHT22;9716;53.114;18.040;2023-03-12T04:11:26;1.40;99.90
19168;DHT22;9716;53.114;18.040;2023-03-12T04:13:55;1.40;99.90
19168;DHT22;9716;53.114;18.040;2023-03-12T04:16:24;1.40;99.90
19168;DHT22;9716;53.114;18.040;2023-03-12T04:18:52;1.40;99.90
19168;DHT22;9716;53.114;18.040;2023-03-12T04:21:21;1.40;99.90
19168;DHT22;9716;53.114;18.040;2023-03-12T04:23:49;1.40;99.90
19168;DHT22;9716;53.114;18.040;2023-03-12T04:26:19;1.40;99.90
19168;DHT22;9716;53.114;18.040;2023-03-12T04:28:48;1.30;99.90
19168;DHT22;9716;53.114;18.040;2023-03-12T04:31:16;1.30;99.90
19168;DHT22;9716;53.114;18.040;2023-03-12T04:33:44;1.30;99.90
19168;DHT22;9716;53.114;18.040;2023-03-12T04:36:13;1.20;99.90
19168;DHT22;9716;53.114;18.040;2023-03-12T04:38:42;1.20;99.90
19168;DHT22;9716;53.114;18.040;2023-03-12T04:41:12;1.20;99.90
19168;DHT22;9716;53.114;18.040;2023-03-12T04:43:43;1.10;99.90
19168;DHT22;9716;53.114;18.040;2023-03-12T04:46:11;1.10;99.90
19168;DHT22;9716;53.114;18.040;2023-03-12T04:48:40;1.10;99.90
19168;DHT22;9716;53.114;18.040;2023-03-12T04:51:08;1.10;99.90
19168;DHT22;9716;53.114;18.040;2023-03-12T04:53:37;1.00;99.90
19168;DHT22;9716;53.114;18.040;2023-03-12T04:56:06;1.00;99.90
19168;DHT22;9716;53.114;18.040;2023-03-12T04:58:35;1.00;99.90
19168;DHT22;9716;53.114;18.040;2023-03-12T05:01:04;1.00;99.90
19168;DHT22;9716;53.114;18.040;2023-03-12T05:03:34;0.90;99.90
19168;DHT22;9716;53.114;18.040;2023-03-12T05:06:03;0.90;99.90
19168;DHT22;9716;53.114;18.040;2023-03-12T05:08:32;0.90;99.90
19168;DHT22;9716;53.114;18.040;2023-03-12T05:11:00;0.90;99.90
19168;DHT22;9716;53.114;18.040;2023-03-12T05:13:30;0.90;99.90
19168;DHT22;9716;53.114;18.040;2023-03-12T05:15:58;0.80;99.90
19168;DHT22;9716;53.114;18.040;2023-03-12T05:18:28;0.80;99.90
19168;DHT22;9716;53.114;18.040;2023-03-12T05:20:58;0.80;99.90
19168;DHT22;9716;53.114;18.040;2023-03-12T05:23:27;0.80;99.90
19168;DHT22;9716;53.114;18.040;2023-03-12T05:25:56;0.80;99.90
19168;DHT22;9716;53.114;18.040;2023-03-12T05:28:24;0.80;99.90
19168;DHT22;9716;53.114;18.040;2023-03-12T05:30:54;0.80;99.90
19168;DHT22;9716;53.114;18.040;2023-03-12T05:33:23;0.80;99.90
19168;DHT22;9716;53.114;18.040;2023-03-12T05:35:54;0.80;99.90
19168;DHT22;9716;53.114;18.040;2023-03-12T05:38:22;0.90;99.90
19168;DHT22;9716;53.114;18.040;2023-03-12T05:40:51;0.90;99.90
19168;DHT22;9716;53.114;18.040;2023-03-12T05:43:20;0.90;99.90
19168;DHT22;9716;53.114;18.040;2023-03-12T05:45:49;0.90;99.90
19168;DHT22;9716;53.114;18.040;2023-03-12T05:48:18;1.00;99.90
19168;DHT22;9716;53.114;18.040;2023-03-12T05:50:47;1.00;99.90
19168;DHT22;9716;53.114;18.040;2023-03-12T05:53:17;1.10;99.90
19168;DHT22;9716;53.114;18.040;2023-03-12T05:55:45;1.30;99.90
19168;DHT22;9716;53.114;18.040;2023-03-12T05:58:13;1.40;99.90
19168;DHT22;9716;53.114;18.040;2023-03-12T06:00:43;1.60;99.90
19168;DHT22;9716;53.114;18.040;2023-03-12T06:03:11;1.90;99.90
19168;DHT22;9716;53.114;18.040;2023-03-12T06:05:40;2.10;99.90
19168;DHT22;9716;53.114;18.040;2023-03-12T06:08:08;2.40;99.90
19168;DHT22;9716;53.114;18.040;2023-03-12T06:10:38;2.60;99.90
19168;DHT22;9716;53.114;18.040;2023-03-12T06:13:07;2.90;99.90
19168;DHT22;9716;53.114;18.040;2023-03-12T06:15:35;3.20;99.90
19168;DHT22;9716;53.114;18.040;2023-03-12T06:18:04;3.40;99.90
19168;DHT22;9716;53.114;18.040;2023-03-12T06:20:32;3.60;99.90
19168;DHT22;9716;53.114;18.040;2023-03-12T06:23:00;3.80;99.90
19168;DHT22;9716;53.114;18.040;2023-03-12T06:25:29;4.10;99.90
19168;DHT22;9716;53.114;18.040;2023-03-12T06:27:59;4.30;99.90
19168;DHT22;9716;53.114;18.040;2023-03-12T06:30:27;4.50;99.90
19168;DHT22;9716;53.114;18.040;2023-03-12T06:32:56;4.70;99.90
19168;DHT22;9716;53.114;18.040;2023-03-12T06:35:24;4.90;99.90
19168;DHT22;9716;53.114;18.040;2023-03-12T06:37:52;5.10;99.90
19168;DHT22;9716;53.114;18.040;2023-03-12T06:40:21;5.30;99.90
19168;DHT22;9716;53.114;18.040;2023-03-12T06:42:49;5.50;99.90
19168;DHT22;9716;53.114;18.040;2023-03-12T06:45:19;5.50;99.90
19168;DHT22;9716;53.114;18.040;2023-03-12T06:47:47;5.60;99.90
19168;DHT22;9716;53.114;18.040;2023-03-12T06:50:15;5.80;99.90
19168;DHT22;9716;53.114;18.040;2023-03-12T06:52:44;6.00;99.90
19168;DHT22;9716;53.114;18.040;2023-03-12T06:55:12;6.20;99.90
19168;DHT22;9716;53.114;18.040;2023-03-12T06:57:41;6.30;99.90
19168;DHT22;9716;53.114;18.040;2023-03-12T07:00:10;6.50;99.90
19168;DHT22;9716;53.114;18.040;2023-03-12T07:02:40;6.60;99.90
19168;DHT22;9716;53.114;18.040;2023-03-12T07:05:09;6.70;99.90
19168;DHT22;9716;53.114;18.040;2023-03-12T07:07:38;6.80;99.90
19168;DHT22;9716;53.114;18.040;2023-03-12T07:10:07;6.90;99.90
19168;DHT22;9716;53.114;18.040;2023-03-12T07:12:40;7.00;99.90
19168;DHT22;9716;53.114;18.040;2023-03-12T07:15:10;7.20;99.90
19168;DHT22;9716;53.114;18.040;2023-03-12T07:17:40;7.40;99.90
19168;DHT22;9716;53.114;18.040;2023-03-12T07:20:09;7.60;99.90
19168;DHT22;9716;53.114;18.040;2023-03-12T07:22:38;7.80;99.90
19168;DHT22;9716;53.114;18.040;2023-03-12T07:25:07;8.00;99.90
19168;DHT22;9716;53.114;18.040;2023-03-12T07:27:36;8.10;99.90
19168;DHT22;9716;53.114;18.040;2023-03-12T07:30:05;8.30;99.90
19168;DHT22;9716;53.114;18.040;2023-03-12T07:32:33;8.50;99.90
19168;DHT22;9716;53.114;18.040;2023-03-12T07:35:04;8.60;99.90
19168;DHT22;9716;53.114;18.040;2023-03-12T07:37:33;8.60;99.90
19168;DHT22;9716;53.114;18.040;2023-03-12T07:40:01;8.60;99.90
19168;DHT22;9716;53.114;18.040;2023-03-12T07:42:33;8.70;99.90
19168;DHT22;9716;53.114;18.040;2023-03-12T07:45:02;8.80;99.90
19168;DHT22;9716;53.114;18.040;2023-03-12T07:47:31;9.00;99.90
19168;DHT22;9716;53.114;18.040;2023-03-12T07:49:59;9.20;99.90
19168;DHT22;9716;53.114;18.040;2023-03-12T07:52:29;9.30;99.90
19168;DHT22;9716;53.114;18.040;2023-03-12T07:54:57;9.40;99.90
19168;DHT22;9716;53.114;18.040;2023-03-12T07:57:26;9.40;99.90
19168;DHT22;9716;53.114;18.040;2023-03-12T07:59:54;9.50;99.90
19168;DHT22;9716;53.114;18.040;2023-03-12T08:02:23;9.60;99.90
19168;DHT22;9716;53.114;18.040;2023-03-12T08:04:51;9.70;99.90
19168;DHT22;9716;53.114;18.040;2023-03-12T08:07:20;9.70;99.90
19168;DHT22;9716;53.114;18.040;2023-03-12T08:09:50;9.80;99.90
19168;DHT22;9716;53.114;18.040;2023-03-12T08:12:18;9.80;99.90
19168;DHT22;9716;53.114;18.040;2023-03-12T08:14:46;9.80;99.90
19168;DHT22;9716;53.114;18.040;2023-03-12T08:17:15;9.90;99.90
19168;DHT22;9716;53.114;18.040;2023-03-12T08:19:43;9.90;99.90
19168;DHT22;9716;53.114;18.040;2023-03-12T08:22:12;9.90;99.90
19168;DHT22;9716;53.114;18.040;2023-03-12T08:24:40;10.00;99.90
19168;DHT22;9716;53.114;18.040;2023-03-12T08:27:10;10.00;99.90
19168;DHT22;9716;53.114;18.040;2023-03-12T08:29:39;9.90;99.90
19168;DHT22;9716;53.114;18.040;2023-03-12T08:32:08;9.90;99.90
19168;DHT22;9716;53.114;18.040;2023-03-12T08:34:37;9.90;99.90
19168;DHT22;9716;53.114;18.040;2023-03-12T08:37:05;9.70;99.90
19168;DHT22;9716;53.114;18.040;2023-03-12T08:39:34;9.70;99.90
19168;DHT22;9716;53.114;18.040;2023-03-12T08:42:03;9.50;99.90
19168;DHT22;9716;53.114;18.040;2023-03-12T08:44:34;9.50;99.90
19168;DHT22;9716;53.114;18.040;2023-03-12T08:47:02;9.50;99.90
19168;DHT22;9716;53.114;18.040;2023-03-12T08:49:31;9.40;99.90
19168;DHT22;9716;53.114;18.040;2023-03-12T08:51:59;9.30;99.90
19168;DHT22;9716;53.114;18.040;2023-03-12T08:54:28;9.20;99.90
19168;DHT22;9716;53.114;18.040;2023-03-12T08:56:56;9.20;99.90
19168;DHT22;9716;53.114;18.040;2023-03-12T08:59:25;9.30;99.90
19168;DHT22;9716;53.114;18.040;2023-03-12T09:01:55;9.30;99.50
19168;DHT22;9716;53.114;18.040;2023-03-12T09:04:23;9.40;99.60
19168;DHT22;9716;53.114;18.040;2023-03-12T09:06:52;9.30;99.40
19168;DHT22;9716;53.114;18.040;2023-03-12T09:09:20;9.20;99.10
19168;DHT22;9716;53.114;18.040;2023-03-12T09:11:49;9.00;98.90
19168;DHT22;9716;53.114;18.040;2023-03-12T09:14:17;8.80;98.70
19168;DHT22;9716;53.114;18.040;2023-03-12T09:17:09;8.70;98.80
19168;DHT22;9716;53.114;18.040;2023-03-12T09:19:38;8.60;98.30
19168;DHT22;9716;53.114;18.040;2023-03-12T09:22:07;8.60;98.50
19168;DHT22;9716;53.114;18.040;2023-03-12T09:24:36;8.60;98.30
19168;DHT22;9716;53.114;18.040;2023-03-12T09:27:04;8.60;98.20
19168;DHT22;9716;53.114;18.040;2023-03-12T09:29:32;8.70;98.40
19168;DHT22;9716;53.114;18.040;2023-03-12T09:32:14;8.80;98.30
19168;DHT22;9716;53.114;18.040;2023-03-12T09:34:42;8.90;98.20
19168;DHT22;9716;53.114;18.040;2023-03-12T09:37:11;9.00;97.80
19168;DHT22;9716;53.114;18.040;2023-03-12T09:39:40;8.90;97.30
19168;DHT22;9716;53.114;18.040;2023-03-12T09:42:17;8.80;96.80
19168;DHT22;9716;53.114;18.040;2023-03-12T09:44:47;8.60;96.70
19168;DHT22;9716;53.114;18.040;2023-03-12T09:47:25;8.50;97.20
19168;DHT22;9716;53.114;18.040;2023-03-12T09:49:56;8.40;96.70
19168;DHT22;9716;53.114;18.040;2023-03-12T09:52:29;8.30;97.00
19168;DHT22;9716;53.114;18.040;2023-03-12T09:55:03;8.40;97.60
19168;DHT22;9716;53.114;18.040;2023-03-12T09:57:34;8.60;97.70
19168;DHT22;9716;53.114;18.040;2023-03-12T10:00:03;8.90;97.30
19168;DHT22;9716;53.114;18.040;2023-03-12T10:02:54;9.10;97.10
19168;DHT22;9716;53.114;18.040;2023-03-12T10:05:36;9.40;96.30
19168;DHT22;9716;53.114;18.040;2023-03-12T10:08:09;9.50;95.60
19168;DHT22;9716;53.114;18.040;2023-03-12T10:10:55;9.60;95.40
19168;DHT22;9716;53.114;18.040;2023-03-12T10:13:48;9.50;95.30
19168;DHT22;9716;53.114;18.040;2023-03-12T10:16:32;9.50;95.10
19168;DHT22;9716;53.114;18.040;2023-03-12T10:19:14;9.60;95.20
19168;DHT22;9716;53.114;18.040;2023-03-12T10:21:51;9.70;95.00
19168;DHT22;9716;53.114;18.040;2023-03-12T10:24:30;9.80;94.90
19168;DHT22;9716;53.114;18.040;2023-03-12T10:27:08;10.10;94.00
19168;DHT22;9716;53.114;18.040;2023-03-12T10:29:41;10.30;93.10
19168;DHT22;9716;53.114;18.040;2023-03-12T10:32:14;10.50;92.70
19168;DHT22;9716;53.114;18.040;2023-03-12T10:34:49;10.40;92.50
19168;DHT22;9716;53.114;18.040;2023-03-12T10:37:22;10.40;92.50
19168;DHT22;9716;53.114;18.040;2023-03-12T10:39:52;10.40;92.40
19168;DHT22;9716;53.114;18.040;2023-03-12T10:42:22;10.50;92.10
19168;DHT22;9716;53.114;18.040;2023-03-12T10:44:53;10.50;91.90
19168;DHT22;9716;53.114;18.040;2023-03-12T10:47:31;10.40;91.60
19168;DHT22;9716;53.114;18.040;2023-03-12T10:50:16;10.20;91.50
19168;DHT22;9716;53.114;18.040;2023-03-12T10:52:46;9.90;91.70
19168;DHT22;9716;53.114;18.040;2023-03-12T10:55:26;9.60;91.70
19168;DHT22;9716;53.114;18.040;2023-03-12T10:57:56;9.40;91.80
19168;DHT22;9716;53.114;18.040;2023-03-12T11:00:27;9.40;92.10
19168;DHT22;9716;53.114;18.040;2023-03-12T11:02:58;9.50;92.20
19168;DHT22;9716;53.114;18.040;2023-03-12T11:05:33;9.70;92.20
19168;DHT22;9716;53.114;18.040;2023-03-12T11:08:03;9.70;91.90
19168;DHT22;9716;53.114;18.040;2023-03-12T11:10:46;9.70;91.80
19168;DHT22;9716;53.114;18.040;2023-03-12T11:13:27;9.80;91.30
19168;DHT22;9716;53.114;18.040;2023-03-12T11:15:57;9.90;91.20
19168;DHT22;9716;53.114;18.040;2023-03-12T11:18:31;9.80;90.90
19168;DHT22;9716;53.114;18.040;2023-03-12T11:21:16;9.60;90.50
19168;DHT22;9716;53.114;18.040;2023-03-12T11:24:00;9.40;90.40
19168;DHT22;9716;53.114;18.040;2023-03-12T11:26:37;9.30;90.30
19168;DHT22;9716;53.114;18.040;2023-03-12T11:29:15;9.10;90.20
19168;DHT22;9716;53.114;18.040;2023-03-12T11:31:50;9.00;90.10
19168;DHT22;9716;53.114;18.040;2023-03-12T11:34:25;8.90;90.30
19168;DHT22;9716;53.114;18.040;2023-03-12T11:37:03;8.90;90.10
19168;DHT22;9716;53.114;18.040;2023-03-12T11:39:43;8.80;89.30
19168;DHT22;9716;53.114;18.040;2023-03-12T11:42:32;8.60;89.10
19168;DHT22;9716;53.114;18.040;2023-03-12T11:45:08;8.60;89.30
19168;DHT22;9716;53.114;18.040;2023-03-12T11:47:50;8.40;89.50
19168;DHT22;9716;53.114;18.040;2023-03-12T11:50:27;8.40;90.00
19168;DHT22;9716;53.114;18.040;2023-03-12T11:53:23;8.30;90.20
19168;DHT22;9716;53.114;18.040;2023-03-12T11:56:08;8.10;90.00
19168;DHT22;9716;53.114;18.040;2023-03-12T11:58:58;7.90;90.10
19168;DHT22;9716;53.114;18.040;2023-03-12T12:01:36;7.80;90.50
19168;DHT22;9716;53.114;18.040;2023-03-12T12:04:26;7.60;90.80
19168;DHT22;9716;53.114;18.040;2023-03-12T12:07:07;7.40;90.90
19168;DHT22;9716;53.114;18.040;2023-03-12T12:09:47;7.30;91.20
19168;DHT22;9716;53.114;18.040;2023-03-12T12:12:30;7.40;91.60
19168;DHT22;9716;53.114;18.040;2023-03-12T12:15:12;7.50;91.50
19168;DHT22;9716;53.114;18.040;2023-03-12T12:17:52;7.60;91.50
19168;DHT22;9716;53.114;18.040;2023-03-12T12:20:37;7.70;91.60
19168;DHT22;9716;53.114;18.040;2023-03-12T12:23:17;7.80;91.70
19168;DHT22;9716;53.114;18.040;2023-03-12T12:26:09;7.80;91.80
19168;DHT22;9716;53.114;18.040;2023-03-12T12:29:02;7.90;91.90
19168;DHT22;9716;53.114;18.040;2023-03-12T12:31:39;8.00;91.90
19168;DHT22;9716;53.114;18.040;2023-03-12T12:34:30;8.00;92.00
19168;DHT22;9716;53.114;18.040;2023-03-12T12:37:24;8.10;92.00
19168;DHT22;9716;53.114;18.040;2023-03-12T12:40:04;8.00;91.80
19168;DHT22;9716;53.114;18.040;2023-03-12T12:42:48;8.10;91.90
19168;DHT22;9716;53.114;18.040;2023-03-12T12:45:21;8.10;91.70
19168;DHT22;9716;53.114;18.040;2023-03-12T12:47:54;8.10;91.40
19168;DHT22;9716;53.114;18.040;2023-03-12T12:50:26;8.10;91.40
19168;DHT22;9716;53.114;18.040;2023-03-12T12:53:04;8.20;91.30
19168;DHT22;9716;53.114;18.040;2023-03-12T12:55:39;8.20;91.10
19168;DHT22;9716;53.114;18.040;2023-03-12T12:58:17;8.20;90.80
19168;DHT22;9716;53.114;18.040;2023-03-12T13:00:49;8.20;90.40
19168;DHT22;9716;53.114;18.040;2023-03-12T13:03:21;8.20;90.20
19168;DHT22;9716;53.114;18.040;2023-03-12T13:05:54;8.20;89.80
19168;DHT22;9716;53.114;18.040;2023-03-12T13:08:58;8.20;89.20
19168;DHT22;9716;53.114;18.040;2023-03-12T13:11:29;8.20;88.70
19168;DHT22;9716;53.114;18.040;2023-03-12T13:14:22;8.10;88.80
19168;DHT22;9716;53.114;18.040;2023-03-12T13:17:22;8.00;88.80
19168;DHT22;9716;53.114;18.040;2023-03-12T13:19:53;8.00;89.40
19168;DHT22;9716;53.114;18.040;2023-03-12T13:22:44;8.00;89.90
19168;DHT22;9716;53.114;18.040;2023-03-12T13:25:26;7.90;89.70
19168;DHT22;9716;53.114;18.040;2023-03-12T13:27:58;7.80;89.40
19168;DHT22;9716;53.114;18.040;2023-03-12T13:30:44;7.70;89.60
19168;DHT22;9716;53.114;18.040;2023-03-12T13:33:15;7.60;89.60
19168;DHT22;9716;53.114;18.040;2023-03-12T13:36:01;7.40;89.60
19168;DHT22;9716;53.114;18.040;2023-03-12T13:38:36;7.40;89.60
19168;DHT22;9716;53.114;18.040;2023-03-12T13:41:06;7.30;89.50
19168;DHT22;9716;53.114;18.040;2023-03-12T13:43:50;7.30;89.50
19168;DHT22;9716;53.114;18.040;2023-03-12T13:46:36;7.30;89.50
19168;DHT22;9716;53.114;18.040;2023-03-12T13:49:23;7.30;90.00
19168;DHT22;9716;53.114;18.040;2023-03-12T13:52:25;7.40;90.20
19168;DHT22;9716;53.114;18.040;2023-03-12T13:54:59;7.50;90.20
19168;DHT22;9716;53.114;18.040;2023-03-12T13:57:34;7.50;88.50
19168;DHT22;9716;53.114;18.040;2023-03-12T14:00:15;7.40;88.70
19168;DHT22;9716;53.114;18.040;2023-03-12T14:02:48;7.40;89.00
19168;DHT22;9716;53.114;18.040;2023-03-12T14:05:19;7.40;89.20
19168;DHT22;9716;53.114;18.040;2023-03-12T14:10:46;7.40;89.00
19168;DHT22;9716;53.114;18.040;2023-03-12T14:13:38;7.40;89.20
19168;DHT22;9716;53.114;18.040;2023-03-12T14:16:17;7.40;89.10
19168;DHT22;9716;53.114;18.040;2023-03-12T14:18:50;7.40;89.20
19168;DHT22;9716;53.114;18.040;2023-03-12T14:21:20;7.30;89.30
19168;DHT22;9716;53.114;18.040;2023-03-12T14:23:54;7.30;89.20
19168;DHT22;9716;53.114;18.040;2023-03-12T14:26:25;7.20;89.10
19168;DHT22;9716;53.114;18.040;2023-03-12T14:28:58;7.20;89.10
19168;DHT22;9716;53.114;18.040;2023-03-12T14:31:28;7.10;89.30
19168;DHT22;9716;53.114;18.040;2023-03-12T14:34:03;7.10;89.70
19168;DHT22;9716;53.114;18.040;2023-03-12T14:36:37;7.10;89.70
19168;DHT22;9716;53.114;18.040;2023-03-12T14:39:18;7.10;89.90
19168;DHT22;9716;53.114;18.040;2023-03-12T14:41:52;7.10;89.90
19168;DHT22;9716;53.114;18.040;2023-03-12T14:44:24;7.10;90.10
19168;DHT22;9716;53.114;18.040;2023-03-12T14:46:57;7.10;90.40
19168;DHT22;9716;53.114;18.040;2023-03-12T14:49:29;7.10;90.80
19168;DHT22;9716;53.114;18.040;2023-03-12T14:51:57;7.20;91.10
19168;DHT22;9716;53.114;18.040;2023-03-12T14:54:27;7.20;91.30
19168;DHT22;9716;53.114;18.040;2023-03-12T14:56:55;7.10;91.40
19168;DHT22;9716;53.114;18.040;2023-03-12T14:59:28;7.20;91.80
19168;DHT22;9716;53.114;18.040;2023-03-12T15:02:00;7.20;92.30
19168;DHT22;9716;53.114;18.040;2023-03-12T15:04:32;7.20;92.50
19168;DHT22;9716;53.114;18.040;2023-03-12T15:07:03;7.20;92.60
19168;DHT22;9716;53.114;18.040;2023-03-12T15:09:34;7.20;92.80
19168;DHT22;9716;53.114;18.040;2023-03-12T15:12:05;7.20;92.90
19168;DHT22;9716;53.114;18.040;2023-03-12T15:14:38;7.20;93.20
19168;DHT22;9716;53.114;18.040;2023-03-12T15:17:14;7.20;93.50
19168;DHT22;9716;53.114;18.040;2023-03-12T15:19:46;7.10;93.70
19168;DHT22;9716;53.114;18.040;2023-03-12T15:22:17;7.10;93.90
19168;DHT22;9716;53.114;18.040;2023-03-12T15:24:46;7.00;94.20
19168;DHT22;9716;53.114;18.040;2023-03-12T15:30:21;6.90;94.70
19168;DHT22;9716;53.114;18.040;2023-03-12T15:33:07;6.80;94.80
19168;DHT22;9716;53.114;18.040;2023-03-12T15:35:39;6.70;94.90
19168;DHT22;9716;53.114;18.040;2023-03-12T15:38:15;6.60;95.10
19168;DHT22;9716;53.114;18.040;2023-03-12T15:40:48;6.50;95.00
19168;DHT22;9716;53.114;18.040;2023-03-12T15:43:19;6.40;94.90
19168;DHT22;9716;53.114;18.040;2023-03-12T15:45:56;6.40;95.00
19168;DHT22;9716;53.114;18.040;2023-03-12T15:48:27;6.20;95.50
19168;DHT22;9716;53.114;18.040;2023-03-12T15:50:58;6.20;95.30
19168;DHT22;9716;53.114;18.040;2023-03-12T15:53:29;6.20;95.70
19168;DHT22;9716;53.114;18.040;2023-03-12T15:56:02;6.10;95.80
19168;DHT22;9716;53.114;18.040;2023-03-12T15:58:33;6.10;95.90
19168;DHT22;9716;53.114;18.040;2023-03-12T16:01:09;6.00;96.10
19168;DHT22;9716;53.114;18.040;2023-03-12T16:03:39;5.90;96.30
19168;DHT22;9716;53.114;18.040;2023-03-12T16:06:11;5.90;96.60
19168;DHT22;9716;53.114;18.040;2023-03-12T16:08:43;5.80;96.90
19168;DHT22;9716;53.114;18.040;2023-03-12T16:11:15;5.80;97.20
19168;DHT22;9716;53.114;18.040;2023-03-12T16:13:45;5.80;97.50
19168;DHT22;9716;53.114;18.040;2023-03-12T16:16:14;5.90;97.90
19168;DHT22;9716;53.114;18.040;2023-03-12T16:18:43;5.90;98.30
19168;DHT22;9716;53.114;18.040;2023-03-12T16:21:13;6.00;98.80
19168;DHT22;9716;53.114;18.040;2023-03-12T16:23:41;6.10;99.00
19168;DHT22;9716;53.114;18.040;2023-03-12T16:26:11;6.10;98.60